sensor_id;sensor_type;location;lat;lon;timestamp;temperature;humidity
49829;DHT22;35723;51.194;5.112;2023-07-31T00:00:24;19.60;99.90
49829;DHT22;35723;51.194;5.112;2023-07-31T00:02:51;19.50;99.90
49829;DHT22;35723;51.194;5.112;2023-07-31T00:05:17;19.60;99.90
49829;DHT22;35723;51.194;5.112;2023-07-31T00:07:43;19.70;99.90
49829;DHT22;35723;51.194;5.112;2023-07-31T00:10:09;19.60;99.90
49829;DHT22;35723;51.194;5.112;2023-07-31T00:12:34;19.60;99.90
49829;DHT22;35723;51.194;5.112;2023-07-31T00:15:00;19.50;99.90
49829;DHT22;35723;51.194;5.112;2023-07-31T00:17:26;19.50;99.90
49829;DHT22;35723;51.194;5.112;2023-07-31T00:19:52;19.50;99.90
49829;DHT22;35723;51.194;5.112;2023-07-31T00:22:17;19.60;99.90
49829;DHT22;35723;51.194;5.112;2023-07-31T00:24:43;19.50;99.90
49829;DHT22;35723;51.194;5.112;2023-07-31T00:27:09;19.60;99.90
49829;DHT22;35723;51.194;5.112;2023-07-31T00:29:34;19.60;99.90
49829;DHT22;35723;51.194;5.112;2023-07-31T00:32:00;19.60;99.90
49829;DHT22;35723;51.194;5.112;2023-07-31T00:34:26;19.50;99.90
49829;DHT22;35723;51.194;5.112;2023-07-31T00:36:52;19.50;99.90
49829;DHT22;35723;51.194;5.112;2023-07-31T00:39:17;19.50;99.90
49829;DHT22;35723;51.194;5.112;2023-07-31T00:41:43;19.40;99.90
49829;DHT22;35723;51.194;5.112;2023-07-31T00:44:08;19.50;99.90
49829;DHT22;35723;51.194;5.112;2023-07-31T00:46:34;19.60;99.90
49829;DHT22;35723;51.194;5.112;2023-07-31T00:49:00;19.50;99.90
49829;DHT22;35723;51.194;5.112;2023-07-31T00:51:25;19.60;99.90
49829;DHT22;35723;51.194;5.112;2023-07-31T00:53:51;19.60;99.90
49829;DHT22;35723;51.194;5.112;2023-07-31T00:56:19;19.60;99.90
49829;DHT22;35723;51.194;5.112;2023-07-31T00:58:45;19.50;99.90
49829;DHT22;35723;51.194;5.112;2023-07-31T01:01:11;19.50;99.90
49829;DHT22;35723;51.194;5.112;2023-07-31T01:03:36;19.50;99.90
49829;DHT22;35723;51.194;5.112;2023-07-31T01:08:57;19.40;99.90
49829;DHT22;35723;51.194;5.112;2023-07-31T01:11:46;19.40;99.90
49829;DHT22;35723;51.194;5.112;2023-07-31T01:14:13;19.40;99.90
49829;DHT22;35723;51.194;5.112;2023-07-31T01:16:39;19.40;99.90
49829;DHT22;35723;51.194;5.112;2023-07-31T01:19:06;19.50;99.90
49829;DHT22;35723;51.194;5.112;2023-07-31T01:28:11;19.40;99.90
49829;DHT22;35723;51.194;5.112;2023-07-31T01:30:42;19.40;99.90
49829;DHT22;35723;51.194;5.112;2023-07-31T01:33:09;19.50;99.90
49829;DHT22;35723;51.194;5.112;2023-07-31T01:35:36;19.50;99.90
49829;DHT22;35723;51.194;5.112;2023-07-31T01:38:02;19.40;99.90
49829;DHT22;35723;51.194;5.112;2023-07-31T01:40:28;19.40;99.90
49829;DHT22;35723;51.194;5.112;2023-07-31T01:42:53;19.50;99.90
49829;DHT22;35723;51.194;5.112;2023-07-31T01:45:19;19.40;99.90
49829;DHT22;35723;51.194;5.112;2023-07-31T01:47:45;19.40;99.90
49829;DHT22;35723;51.194;5.112;2023-07-31T01:50:11;19.40;99.90
49829;DHT22;35723;51.194;5.112;2023-07-31T01:52:36;19.40;99.90
49829;DHT22;35723;51.194;5.112;2023-07-31T01:55:02;19.40;99.90
49829;DHT22;35723;51.194;5.112;2023-07-31T01:57:28;19.40;99.90
49829;DHT22;35723;51.194;5.112;2023-07-31T01:59:53;19.40;99.90
49829;DHT22;35723;51.194;5.112;2023-07-31T02:02:20;19.40;99.90
49829;DHT22;35723;51.194;5.112;2023-07-31T02:04:46;19.40;99.90
49829;DHT22;35723;51.194;5.112;2023-07-31T02:07:12;19.40;99.90
49829;DHT22;35723;51.194;5.112;2023-07-31T02:09:38;19.40;99.90
49829;DHT22;35723;51.194;5.112;2023-07-31T02:12:03;19.50;99.90
49829;DHT22;35723;51.194;5.112;2023-07-31T02:14:29;19.50;99.90
49829;DHT22;35723;51.194;5.112;2023-07-31T02:16:55;19.40;99.90
49829;DHT22;35723;51.194;5.112;2023-07-31T02:19:20;19.40;99.90
49829;DHT22;35723;51.194;5.112;2023-07-31T02:21:46;19.40;99.90
49829;DHT22;35723;51.194;5.112;2023-07-31T02:24:12;19.40;99.90
49829;DHT22;35723;51.194;5.112;2023-07-31T02:26:37;19.30;99.90
49829;DHT22;35723;51.194;5.112;2023-07-31T02:29:03;19.40;99.90
49829;DHT22;35723;51.194;5.112;2023-07-31T02:31:28;19.40;99.90
49829;DHT22;35723;51.194;5.112;2023-07-31T02:33:54;19.50;99.90
49829;DHT22;35723;51.194;5.112;2023-07-31T02:36:20;19.50;99.90
49829;DHT22;35723;51.194;5.112;2023-07-31T02:38:45;19.50;99.90
49829;DHT22;35723;51.194;5.112;2023-07-31T02:41:11;19.50;99.90
49829;DHT22;35723;51.194;5.112;2023-07-31T02:43:37;19.50;99.90
49829;DHT22;35723;51.194;5.112;2023-07-31T02:46:02;19.50;99.90
49829;DHT22;35723;51.194;5.112;2023-07-31T02:48:28;19.50;99.90
49829;DHT22;35723;51.194;5.112;2023-07-31T02:50:53;19.50;99.90
49829;DHT22;35723;51.194;5.112;2023-07-31T02:53:19;19.50;99.90
49829;DHT22;35723;51.194;5.112;2023-07-31T02:55:45;19.50;99.90
49829;DHT22;35723;51.194;5.112;2023-07-31T02:58:11;19.40;99.90
49829;DHT22;35723;51.194;5.112;2023-07-31T03:00:42;19.50;99.90
49829;DHT22;35723;51.194;5.112;2023-07-31T03:03:08;19.50;99.90
49829;DHT22;35723;51.194;5.112;2023-07-31T03:05:33;19.50;99.90
49829;DHT22;35723;51.194;5.112;2023-07-31T03:07:59;19.50;99.90
49829;DHT22;35723;51.194;5.112;2023-07-31T03:10:24;19.50;99.90
49829;DHT22;35723;51.194;5.112;2023-07-31T03:12:50;19.40;99.90
49829;DHT22;35723;51.194;5.112;2023-07-31T03:15:16;19.50;99.90
49829;DHT22;35723;51.194;5.112;2023-07-31T03:17:41;19.50;99.90
49829;DHT22;35723;51.194;5.112;2023-07-31T03:20:07;19.40;99.90
49829;DHT22;35723;51.194;5.112;2023-07-31T03:22:34;19.40;99.90
49829;DHT22;35723;51.194;5.112;2023-07-31T03:25:01;19.50;99.90
49829;DHT22;35723;51.194;5.112;2023-07-31T03:27:26;19.50;99.90
49829;DHT22;35723;51.194;5.112;2023-07-31T03:29:52;19.60;99.90
49829;DHT22;35723;51.194;5.112;2023-07-31T03:32:18;19.50;99.90
49829;DHT22;35723;51.194;5.112;2023-07-31T03:34:44;19.60;99.90
49829;DHT22;35723;51.194;5.112;2023-07-31T03:37:09;19.50;99.90
49829;DHT22;35723;51.194;5.112;2023-07-31T03:39:35;19.50;99.90
49829;DHT22;35723;51.194;5.112;2023-07-31T03:42:01;19.50;99.90
49829;DHT22;35723;51.194;5.112;2023-07-31T03:44:26;19.50;99.90
49829;DHT22;35723;51.194;5.112;2023-07-31T03:46:52;19.50;99.90
49829;DHT22;35723;51.194;5.112;2023-07-31T03:49:18;19.50;99.90
49829;DHT22;35723;51.194;5.112;2023-07-31T03:51:44;19.50;99.90
49829;DHT22;35723;51.194;5.112;2023-07-31T03:54:10;19.50;99.90
49829;DHT22;35723;51.194;5.112;2023-07-31T03:56:35;19.50;99.90
49829;DHT22;35723;51.194;5.112;2023-07-31T03:59:01;19.50;99.90
49829;DHT22;35723;51.194;5.112;2023-07-31T04:01:27;19.50;99.90
49829;DHT22;35723;51.194;5.112;2023-07-31T04:03:52;19.60;99.90
49829;DHT22;35723;51.194;5.112;2023-07-31T04:06:18;19.50;99.90
49829;DHT22;35723;51.194;5.112;2023-07-31T04:08:44;19.50;99.90
49829;DHT22;35723;51.194;5.112;2023-07-31T04:11:13;19.50;99.90
49829;DHT22;35723;51.194;5.112;2023-07-31T04:13:40;19.50;99.90
49829;DHT22;35723;51.194;5.112;2023-07-31T04:16:06;19.50;99.90
49829;DHT22;35723;51.194;5.112;2023-07-31T04:18:31;19.50;99.90
49829;DHT22;35723;51.194;5.112;2023-07-31T04:20:58;19.60;99.90
49829;DHT22;35723;51.194;5.112;2023-07-31T04:23:25;19.50;99.90
49829;DHT22;35723;51.194;5.112;2023-07-31T04:25:51;19.50;99.90
49829;DHT22;35723;51.194;5.112;2023-07-31T04:28:16;19.50;99.90
49829;DHT22;35723;51.194;5.112;2023-07-31T04:30:42;19.60;99.90
49829;DHT22;35723;51.194;5.112;2023-07-31T04:33:08;19.60;99.90
49829;DHT22;35723;51.194;5.112;2023-07-31T04:35:33;19.50;99.90
49829;DHT22;35723;51.194;5.112;2023-07-31T04:37:59;19.50;99.90
49829;DHT22;35723;51.194;5.112;2023-07-31T04:40:25;19.50;99.90
49829;DHT22;35723;51.194;5.112;2023-07-31T04:42:50;19.50;99.90
49829;DHT22;35723;51.194;5.112;2023-07-31T04:45:16;19.50;99.90
49829;DHT22;35723;51.194;5.112;2023-07-31T04:47:42;19.50;99.90
49829;DHT22;35723;51.194;5.112;2023-07-31T04:50:08;19.50;99.90
49829;DHT22;35723;51.194;5.112;2023-07-31T04:52:34;19.40;99.90
49829;DHT22;35723;51.194;5.112;2023-07-31T04:54:59;19.40;99.90
49829;DHT22;35723;51.194;5.112;2023-07-31T04:57:25;19.40;99.90
49829;DHT22;35723;51.194;5.112;2023-07-31T04:59:50;19.50;99.90
49829;DHT22;35723;51.194;5.112;2023-07-31T05:02:16;19.40;99.90
49829;DHT22;35723;51.194;5.112;2023-07-31T05:04:42;19.30;99.90
49829;DHT22;35723;51.194;5.112;2023-07-31T05:07:07;19.30;99.90
49829;DHT22;35723;51.194;5.112;2023-07-31T05:09:33;19.30;99.90
49829;DHT22;35723;51.194;5.112;2023-07-31T05:11:59;19.40;99.90
49829;DHT22;35723;51.194;5.112;2023-07-31T05:14:25;19.40;99.90
49829;DHT22;35723;51.194;5.112;2023-07-31T05:16:51;19.30;99.90
49829;DHT22;35723;51.194;5.112;2023-07-31T05:19:17;19.30;99.90
49829;DHT22;35723;51.194;5.112;2023-07-31T05:21:43;19.30;99.90
49829;DHT22;35723;51.194;5.112;2023-07-31T05:24:10;19.30;99.90
49829;DHT22;35723;51.194;5.112;2023-07-31T05:26:36;19.20;99.90
49829;DHT22;35723;51.194;5.112;2023-07-31T05:29:03;19.20;99.90
49829;DHT22;35723;51.194;5.112;2023-07-31T05:31:29;19.20;99.90
49829;DHT22;35723;51.194;5.112;2023-07-31T05:33:54;19.20;99.90
49829;DHT22;35723;51.194;5.112;2023-07-31T05:36:20;19.20;99.90
49829;DHT22;35723;51.194;5.112;2023-07-31T05:38:46;19.30;99.90
49829;DHT22;35723;51.194;5.112;2023-07-31T05:41:14;19.30;99.90
49829;DHT22;35723;51.194;5.112;2023-07-31T05:43:40;19.30;99.90
49829;DHT22;35723;51.194;5.112;2023-07-31T05:46:06;19.20;99.90
49829;DHT22;35723;51.194;5.112;2023-07-31T05:48:33;19.30;99.90
49829;DHT22;35723;51.194;5.112;2023-07-31T05:50:59;19.20;99.90
49829;DHT22;35723;51.194;5.112;2023-07-31T05:53:25;19.30;99.90
49829;DHT22;35723;51.194;5.112;2023-07-31T05:55:51;19.20;99.90
49829;DHT22;35723;51.194;5.112;2023-07-31T05:58:17;19.20;99.90
49829;DHT22;35723;51.194;5.112;2023-07-31T06:00:42;19.20;99.90
49829;DHT22;35723;51.194;5.112;2023-07-31T06:03:08;19.20;99.90
49829;DHT22;35723;51.194;5.112;2023-07-31T06:05:33;19.20;99.90
49829;DHT22;35723;51.194;5.112;2023-07-31T06:07:59;19.30;99.90
49829;DHT22;35723;51.194;5.112;2023-07-31T06:10:25;19.30;99.90
49829;DHT22;35723;51.194;5.112;2023-07-31T06:12:51;19.20;99.90
49829;DHT22;35723;51.194;5.112;2023-07-31T06:15:17;19.30;99.90
49829;DHT22;35723;51.194;5.112;2023-07-31T06:17:44;19.30;99.90
49829;DHT22;35723;51.194;5.112;2023-07-31T06:20:10;19.20;99.90
49829;DHT22;35723;51.194;5.112;2023-07-31T06:22:36;19.30;99.90
49829;DHT22;35723;51.194;5.112;2023-07-31T06:25:01;19.20;99.90
49829;DHT22;35723;51.194;5.112;2023-07-31T06:27:27;19.20;99.90
49829;DHT22;35723;51.194;5.112;2023-07-31T06:29:53;19.20;99.90
49829;DHT22;35723;51.194;5.112;2023-07-31T06:32:18;19.20;99.90
49829;DHT22;35723;51.194;5.112;2023-07-31T06:34:44;19.20;99.90
49829;DHT22;35723;51.194;5.112;2023-07-31T06:37:09;19.20;99.90
49829;DHT22;35723;51.194;5.112;2023-07-31T06:39:35;19.10;99.90
49829;DHT22;35723;51.194;5.112;2023-07-31T06:42:01;19.20;99.90
49829;DHT22;35723;51.194;5.112;2023-07-31T06:44:26;19.20;99.90
49829;DHT22;35723;51.194;5.112;2023-07-31T06:46:52;19.20;99.90
49829;DHT22;35723;51.194;5.112;2023-07-31T06:49:18;19.20;99.90
49829;DHT22;35723;51.194;5.112;2023-07-31T06:51:44;19.20;99.90
49829;DHT22;35723;51.194;5.112;2023-07-31T06:54:09;19.20;99.90
49829;DHT22;35723;51.194;5.112;2023-07-31T06:56:35;19.10;99.90
49829;DHT22;35723;51.194;5.112;2023-07-31T06:59:01;19.10;99.90
49829;DHT22;35723;51.194;5.112;2023-07-31T07:01:27;19.20;99.90
49829;DHT22;35723;51.194;5.112;2023-07-31T07:03:54;19.10;99.90
49829;DHT22;35723;51.194;5.112;2023-07-31T07:06:19;19.20;99.90
49829;DHT22;35723;51.194;5.112;2023-07-31T07:08:45;19.20;99.90
49829;DHT22;35723;51.194;5.112;2023-07-31T07:11:11;19.20;99.90
49829;DHT22;35723;51.194;5.112;2023-07-31T07:13:37;19.20;99.90
49829;DHT22;35723;51.194;5.112;2023-07-31T07:16:02;19.10;99.90
49829;DHT22;35723;51.194;5.112;2023-07-31T07:18:28;19.10;99.90
49829;DHT22;35723;51.194;5.112;2023-07-31T07:20:54;19.10;99.90
49829;DHT22;35723;51.194;5.112;2023-07-31T07:23:20;19.10;99.90
49829;DHT22;35723;51.194;5.112;2023-07-31T07:25:47;19.10;99.90
49829;DHT22;35723;51.194;5.112;2023-07-31T07:28:13;19.10;99.90
49829;DHT22;35723;51.194;5.112;2023-07-31T07:30:39;19.10;99.90
49829;DHT22;35723;51.194;5.112;2023-07-31T07:33:05;19.10;99.90
49829;DHT22;35723;51.194;5.112;2023-07-31T07:35:33;19.10;99.90
49829;DHT22;35723;51.194;5.112;2023-07-31T07:37:59;19.20;99.90
49829;DHT22;35723;51.194;5.112;2023-07-31T07:40:26;19.10;99.90
49829;DHT22;35723;51.194;5.112;2023-07-31T07:42:51;19.10;99.90
49829;DHT22;35723;51.194;5.112;2023-07-31T07:45:17;19.10;99.90
49829;DHT22;35723;51.194;5.112;2023-07-31T07:47:43;19.10;99.90
49829;DHT22;35723;51.194;5.112;2023-07-31T07:50:09;19.10;99.90
49829;DHT22;35723;51.194;5.112;2023-07-31T07:52:35;19.20;99.90
49829;DHT22;35723;51.194;5.112;2023-07-31T07:55:01;19.10;99.90
49829;DHT22;35723;51.194;5.112;2023-07-31T07:57:27;19.10;99.90
49829;DHT22;35723;51.194;5.112;2023-07-31T07:59:52;19.10;99.90
49829;DHT22;35723;51.194;5.112;2023-07-31T08:02:18;19.10;99.90
49829;DHT22;35723;51.194;5.112;2023-07-31T08:04:44;19.10;99.90
49829;DHT22;35723;51.194;5.112;2023-07-31T08:07:13;19.20;99.90
49829;DHT22;35723;51.194;5.112;2023-07-31T08:09:39;19.20;99.90
49829;DHT22;35723;51.194;5.112;2023-07-31T08:12:05;19.30;99.90
49829;DHT22;35723;51.194;5.112;2023-07-31T08:14:31;19.20;99.90
49829;DHT22;35723;51.194;5.112;2023-07-31T08:16:57;19.20;99.90
49829;DHT22;35723;51.194;5.112;2023-07-31T08:19:22;19.20;99.90
49829;DHT22;35723;51.194;5.112;2023-07-31T08:21:48;19.30;99.90
49829;DHT22;35723;51.194;5.112;2023-07-31T08:24:14;19.30;99.90
49829;DHT22;35723;51.194;5.112;2023-07-31T08:26:39;19.20;99.90
49829;DHT22;35723;51.194;5.112;2023-07-31T08:29:05;19.20;99.90
49829;DHT22;35723;51.194;5.112;2023-07-31T08:31:31;19.20;99.90
49829;DHT22;35723;51.194;5.112;2023-07-31T08:33:57;19.20;99.90
49829;DHT22;35723;51.194;5.112;2023-07-31T08:36:22;19.20;99.90
49829;DHT22;35723;51.194;5.112;2023-07-31T08:38:48;19.20;99.90
49829;DHT22;35723;51.194;5.112;2023-07-31T08:41:15;19.30;99.90
49829;DHT22;35723;51.194;5.112;2023-07-31T08:43:44;19.20;99.90
49829;DHT22;35723;51.194;5.112;2023-07-31T08:46:11;19.30;99.90
49829;DHT22;35723;51.194;5.112;2023-07-31T08:48:37;19.30;99.90
49829;DHT22;35723;51.194;5.112;2023-07-31T08:51:06;19.30;99.90
49829;DHT22;35723;51.194;5.112;2023-07-31T08:53:32;19.40;99.90
49829;DHT22;35723;51.194;5.112;2023-07-31T08:55:59;19.50;99.90
49829;DHT22;35723;51.194;5.112;2023-07-31T08:58:25;19.50;99.90
49829;DHT22;35723;51.194;5.112;2023-07-31T09:00:53;19.50;99.90
49829;DHT22;35723;51.194;5.112;2023-07-31T09:03:22;19.50;99.90
49829;DHT22;35723;51.194;5.112;2023-07-31T09:05:50;19.50;99.90
49829;DHT22;35723;51.194;5.112;2023-07-31T09:08:19;19.60;99.90
49829;DHT22;35723;51.194;5.112;2023-07-31T09:10:46;19.60;99.90
49829;DHT22;35723;51.194;5.112;2023-07-31T09:13:13;19.60;99.90
49829;DHT22;35723;51.194;5.112;2023-07-31T09:15:39;19.70;99.90
49829;DHT22;35723;51.194;5.112;2023-07-31T09:18:07;19.70;99.90
49829;DHT22;35723;51.194;5.112;2023-07-31T09:20:33;19.70;99.90
49829;DHT22;35723;51.194;5.112;2023-07-31T09:23:10;19.70;99.90
49829;DHT22;35723;51.194;5.112;2023-07-31T09:25:37;19.80;99.90
49829;DHT22;35723;51.194;5.112;2023-07-31T09:28:07;19.90;99.90
49829;DHT22;35723;51.194;5.112;2023-07-31T09:30:49;19.90;99.90
49829;DHT22;35723;51.194;5.112;2023-07-31T09:33:15;19.90;99.90
49829;DHT22;35723;51.194;5.112;2023-07-31T09:35:41;19.90;99.90
49829;DHT22;35723;51.194;5.112;2023-07-31T09:38:09;19.90;99.90
49829;DHT22;35723;51.194;5.112;2023-07-31T09:40:40;19.90;99.90
49829;DHT22;35723;51.194;5.112;2023-07-31T09:43:11;20.00;99.90
49829;DHT22;35723;51.194;5.112;2023-07-31T09:45:39;19.90;99.90
49829;DHT22;35723;51.194;5.112;2023-07-31T09:50:38;20.00;99.90
49829;DHT22;35723;51.194;5.112;2023-07-31T09:53:05;20.10;99.90
49829;DHT22;35723;51.194;5.112;2023-07-31T09:55:32;20.10;99.90
49829;DHT22;35723;51.194;5.112;2023-07-31T09:57:58;20.10;99.90
49829;DHT22;35723;51.194;5.112;2023-07-31T10:00:24;20.20;99.90
49829;DHT22;35723;51.194;5.112;2023-07-31T10:02:54;20.30;99.90
49829;DHT22;35723;51.194;5.112;2023-07-31T10:05:24;20.40;99.90
49829;DHT22;35723;51.194;5.112;2023-07-31T10:07:56;20.40;99.90
49829;DHT22;35723;51.194;5.112;2023-07-31T10:10:22;20.30;99.90
49829;DHT22;35723;51.194;5.112;2023-07-31T10:12:49;20.40;99.90
49829;DHT22;35723;51.194;5.112;2023-07-31T10:15:16;20.20;99.90
49829;DHT22;35723;51.194;5.112;2023-07-31T10:17:42;20.30;99.90
49829;DHT22;35723;51.194;5.112;2023-07-31T10:20:09;20.20;99.90
49829;DHT22;35723;51.194;5.112;2023-07-31T10:22:35;20.20;99.90
49829;DHT22;35723;51.194;5.112;2023-07-31T10:25:01;20.20;99.90
49829;DHT22;35723;51.194;5.112;2023-07-31T10:27:27;20.20;99.90
49829;DHT22;35723;51.194;5.112;2023-07-31T10:29:57;20.20;99.90
49829;DHT22;35723;51.194;5.112;2023-07-31T10:32:25;20.30;99.90
49829;DHT22;35723;51.194;5.112;2023-07-31T10:34:51;20.40;99.90
49829;DHT22;35723;51.194;5.112;2023-07-31T10:42:44;20.40;99.90
49829;DHT22;35723;51.194;5.112;2023-07-31T10:45:11;20.40;99.90
49829;DHT22;35723;51.194;5.112;2023-07-31T10:47:38;20.40;99.90
49829;DHT22;35723;51.194;5.112;2023-07-31T10:50:21;20.40;99.90
49829;DHT22;35723;51.194;5.112;2023-07-31T10:52:48;20.50;99.90
49829;DHT22;35723;51.194;5.112;2023-07-31T10:57:44;20.50;99.90
49829;DHT22;35723;51.194;5.112;2023-07-31T11:00:23;20.50;99.90
49829;DHT22;35723;51.194;5.112;2023-07-31T11:03:17;20.50;99.90
49829;DHT22;35723;51.194;5.112;2023-07-31T11:08:25;20.60;99.90
49829;DHT22;35723;51.194;5.112;2023-07-31T11:13:43;20.60;99.90
49829;DHT22;35723;51.194;5.112;2023-07-31T11:16:09;20.60;99.90
49829;DHT22;35723;51.194;5.112;2023-07-31T11:18:35;20.60;99.90
49829;DHT22;35723;51.194;5.112;2023-07-31T11:21:01;20.60;99.90
49829;DHT22;35723;51.194;5.112;2023-07-31T11:23:26;20.70;99.90
49829;DHT22;35723;51.194;5.112;2023-07-31T11:25:52;20.70;99.90
49829;DHT22;35723;51.194;5.112;2023-07-31T11:28:19;20.70;99.90
49829;DHT22;35723;51.194;5.112;2023-07-31T11:30:45;20.60;99.90
49829;DHT22;35723;51.194;5.112;2023-07-31T11:33:12;20.60;99.90
49829;DHT22;35723;51.194;5.112;2023-07-31T11:35:46;20.60;99.90
49829;DHT22;35723;51.194;5.112;2023-07-31T11:38:24;20.60;99.90
49829;DHT22;35723;51.194;5.112;2023-07-31T11:40:50;20.60;99.90
49829;DHT22;35723;51.194;5.112;2023-07-31T11:43:17;20.50;99.90
49829;DHT22;35723;51.194;5.112;2023-07-31T11:45:51;20.60;99.90
49829;DHT22;35723;51.194;5.112;2023-07-31T11:48:20;20.70;99.90
49829;DHT22;35723;51.194;5.112;2023-07-31T11:50:49;20.70;99.90
49829;DHT22;35723;51.194;5.112;2023-07-31T11:53:16;20.80;99.90
49829;DHT22;35723;51.194;5.112;2023-07-31T11:55:43;20.70;99.90
49829;DHT22;35723;51.194;5.112;2023-07-31T11:58:09;20.80;99.90
49829;DHT22;35723;51.194;5.112;2023-07-31T12:00:35;20.90;99.90
49829;DHT22;35723;51.194;5.112;2023-07-31T12:03:01;21.00;99.90
49829;DHT22;35723;51.194;5.112;2023-07-31T12:05:27;21.00;99.90
49829;DHT22;35723;51.194;5.112;2023-07-31T12:07:54;20.90;99.90
49829;DHT22;35723;51.194;5.112;2023-07-31T12:10:31;20.90;99.90
49829;DHT22;35723;51.194;5.112;2023-07-31T12:13:04;20.90;99.90
49829;DHT22;35723;51.194;5.112;2023-07-31T12:15:43;21.00;99.90
49829;DHT22;35723;51.194;5.112;2023-07-31T12:18:19;21.10;99.90
49829;DHT22;35723;51.194;5.112;2023-07-31T12:20:46;21.00;99.90
49829;DHT22;35723;51.194;5.112;2023-07-31T12:23:20;20.90;99.90
49829;DHT22;35723;51.194;5.112;2023-07-31T12:28:45;20.90;99.90
49829;DHT22;35723;51.194;5.112;2023-07-31T12:31:15;21.00;99.90
49829;DHT22;35723;51.194;5.112;2023-07-31T12:33:43;21.00;99.90
49829;DHT22;35723;51.194;5.112;2023-07-31T12:36:13;21.00;99.90
49829;DHT22;35723;51.194;5.112;2023-07-31T12:38:40;21.10;99.90
49829;DHT22;35723;51.194;5.112;2023-07-31T12:41:06;21.20;99.90
49829;DHT22;35723;51.194;5.112;2023-07-31T12:43:33;21.10;99.90
49829;DHT22;35723;51.194;5.112;2023-07-31T12:45:59;21.10;99.90
49829;DHT22;35723;51.194;5.112;2023-07-31T12:48:25;21.00;99.90
49829;DHT22;35723;51.194;5.112;2023-07-31T12:50:51;21.20;99.90
49829;DHT22;35723;51.194;5.112;2023-07-31T12:53:17;21.10;99.90
49829;DHT22;35723;51.194;5.112;2023-07-31T12:55:42;21.10;99.90
49829;DHT22;35723;51.194;5.112;2023-07-31T12:58:08;21.10;99.90
49829;DHT22;35723;51.194;5.112;2023-07-31T13:00:34;21.10;99.90
49829;DHT22;35723;51.194;5.112;2023-07-31T13:03:00;21.30;99.90
49829;DHT22;35723;51.194;5.112;2023-07-31T13:05:26;21.30;99.90
49829;DHT22;35723;51.194;5.112;2023-07-31T13:07:52;21.30;99.90
49829;DHT22;35723;51.194;5.112;2023-07-31T13:10:18;21.20;99.90
49829;DHT22;35723;51.194;5.112;2023-07-31T13:12:44;21.20;99.90
49829;DHT22;35723;51.194;5.112;2023-07-31T13:15:09;21.20;99.90
49829;DHT22;35723;51.194;5.112;2023-07-31T13:17:36;21.30;99.90
49829;DHT22;35723;51.194;5.112;2023-07-31T13:20:02;21.30;99.90
49829;DHT22;35723;51.194;5.112;2023-07-31T13:22:29;21.40;99.90
49829;DHT22;35723;51.194;5.112;2023-07-31T13:24:55;21.40;99.90
49829;DHT22;35723;51.194;5.112;2023-07-31T13:27:21;21.30;99.90
49829;DHT22;35723;51.194;5.112;2023-07-31T13:29:47;21.40;99.90
49829;DHT22;35723;51.194;5.112;2023-07-31T13:32:13;21.40;99.90
49829;DHT22;35723;51.194;5.112;2023-07-31T13:34:39;21.30;99.90
49829;DHT22;35723;51.194;5.112;2023-07-31T13:37:04;21.30;99.90
49829;DHT22;35723;51.194;5.112;2023-07-31T13:39:33;21.30;99.90
49829;DHT22;35723;51.194;5.112;2023-07-31T13:41:59;21.30;99.90
49829;DHT22;35723;51.194;5.112;2023-07-31T13:44:25;21.20;99.90
49829;DHT22;35723;51.194;5.112;2023-07-31T13:46:51;21.30;99.90
49829;DHT22;35723;51.194;5.112;2023-07-31T13:49:17;21.20;99.90
49829;DHT22;35723;51.194;5.112;2023-07-31T13:51:42;21.30;99.90
49829;DHT22;35723;51.194;5.112;2023-07-31T13:54:08;21.20;99.90
49829;DHT22;35723;51.194;5.112;2023-07-31T13:56:34;21.10;99.90
49829;DHT22;35723;51.194;5.112;2023-07-31T13:59:00;21.10;99.90
49829;DHT22;35723;51.194;5.112;2023-07-31T14:01:26;21.10;99.90
49829;DHT22;35723;51.194;5.112;2023-07-31T14:03:52;21.10;99.90
49829;DHT22;35723;51.194;5.112;2023-07-31T14:06:18;21.10;99.90
49829;DHT22;35723;51.194;5.112;2023-07-31T14:08:43;21.10;99.90
49829;DHT22;35723;51.194;5.112;2023-07-31T14:11:09;21.10;99.90
49829;DHT22;35723;51.194;5.112;2023-07-31T14:13:35;21.10;99.90
49829;DHT22;35723;51.194;5.112;2023-07-31T14:16:00;21.10;99.90
49829;DHT22;35723;51.194;5.112;2023-07-31T14:18:26;21.00;99.90
49829;DHT22;35723;51.194;5.112;2023-07-31T14:20:52;20.90;99.90
49829;DHT22;35723;51.194;5.112;2023-07-31T14:23:17;20.90;99.90
49829;DHT22;35723;51.194;5.112;2023-07-31T14:25:45;20.80;99.90
49829;DHT22;35723;51.194;5.112;2023-07-31T14:28:11;20.70;99.90
49829;DHT22;35723;51.194;5.112;2023-07-31T14:30:36;20.60;99.90
49829;DHT22;35723;51.194;5.112;2023-07-31T14:33:02;20.70;99.90
49829;DHT22;35723;51.194;5.112;2023-07-31T14:35:28;20.70;99.90
49829;DHT22;35723;51.194;5.112;2023-07-31T14:37:54;20.70;99.90
49829;DHT22;35723;51.194;5.112;2023-07-31T14:40:20;20.70;99.90
49829;DHT22;35723;51.194;5.112;2023-07-31T14:42:45;20.70;99.90
49829;DHT22;35723;51.194;5.112;2023-07-31T14:45:11;20.60;99.90
49829;DHT22;35723;51.194;5.112;2023-07-31T14:47:37;20.60;99.90
49829;DHT22;35723;51.194;5.112;2023-07-31T14:50:03;20.60;99.90
49829;DHT22;35723;51.194;5.112;2023-07-31T14:52:29;20.60;99.90
49829;DHT22;35723;51.194;5.112;2023-07-31T14:54:54;20.60;99.90
49829;DHT22;35723;51.194;5.112;2023-07-31T14:57:20;20.50;99.90
49829;DHT22;35723;51.194;5.112;2023-07-31T14:59:46;20.60;99.90
49829;DHT22;35723;51.194;5.112;2023-07-31T15:02:12;20.60;99.90
49829;DHT22;35723;51.194;5.112;2023-07-31T15:04:38;20.70;99.90
49829;DHT22;35723;51.194;5.112;2023-07-31T15:07:04;20.60;99.90
49829;DHT22;35723;51.194;5.112;2023-07-31T15:09:30;20.70;99.90
49829;DHT22;35723;51.194;5.112;2023-07-31T15:11:56;20.60;99.90
49829;DHT22;35723;51.194;5.112;2023-07-31T15:14:23;20.60;99.90
49829;DHT22;35723;51.194;5.112;2023-07-31T15:16:48;20.50;99.90
49829;DHT22;35723;51.194;5.112;2023-07-31T15:19:15;20.40;99.90
49829;DHT22;35723;51.194;5.112;2023-07-31T15:21:40;20.40;99.90
49829;DHT22;35723;51.194;5.112;2023-07-31T15:24:06;20.40;99.90
49829;DHT22;35723;51.194;5.112;2023-07-31T15:26:32;20.40;99.90
49829;DHT22;35723;51.194;5.112;2023-07-31T15:29:06;20.40;99.90
49829;DHT22;35723;51.194;5.112;2023-07-31T15:31:40;20.40;99.90
49829;DHT22;35723;51.194;5.112;2023-07-31T15:34:06;20.40;99.90
49829;DHT22;35723;51.194;5.112;2023-07-31T15:36:32;20.40;99.90
49829;DHT22;35723;51.194;5.112;2023-07-31T15:38:57;20.30;99.90
49829;DHT22;35723;51.194;5.112;2023-07-31T15:41:23;20.30;99.90
49829;DHT22;35723;51.194;5.112;2023-07-31T15:43:50;20.30;99.90
49829;DHT22;35723;51.194;5.112;2023-07-31T15:46:17;20.20;99.90
49829;DHT22;35723;51.194;5.112;2023-07-31T15:48:43;20.20;99.90
49829;DHT22;35723;51.194;5.112;2023-07-31T15:51:08;20.20;99.90
49829;DHT22;35723;51.194;5.112;2023-07-31T15:53:34;20.10;99.90